Dades meteomassalio
Diari Summary for Noviembre 24, 2017 Units:  Metric    English   Both
« Previous Day
Next Day »
Diari Semanal Mensual Anual Personalitzat
  Maxima: Minima: Mijana:
Temperatura: -17.8 °C -15.9 °C -11.7 °C
Rosada: -17.8 °C -19.3 °C -16.5 °C
Humitat: Humidity % 35 % 57 %
Velocitat del vent: 0 km/h 0 km/h 4 km/h
Racha vent: 0 km/h - -
Vent:- - SW
Pressio: 0 hPa 34544 hPa -
Pluja: 0 mm    
Historical Graphs
 
 
Tabular Data for Noviembre 24, 2017
Time Temperature Dew Point Pressure Wind Wind Speed Wind Gust Humidity Rainfall Rate (Hourly) solar Conditions
-17.8 °C -17.8 °C 0 hPa Calm     Humidity % 0 mm SolarRadiationWatts/m^2 W/m2 Conditions
00:12 -15.6 °C -18.6 °C 34645.6 hPa Calm     68 % 0 mm 0.0 W/m2 CLR
00:17 -15.6 °C -18.7 °C 34645.6 hPa Calm     67 % 0 mm 0.0 W/m2 CLR
00:27 -15.6 °C -18.7 °C 34645.6 hPa Calm     67 % 0 mm 0.0 W/m2 CLR
00:37 -15.9 °C -19.1 °C 34645.6 hPa Calm     66 % 0 mm 0.0 W/m2 CLR
00:47 -15.6 °C -18.8 °C 34645.6 hPa Calm     66 % 0 mm 0.0 W/m2 CLR
01:02 -15 °C -18.4 °C 34645.6 hPa SW 6 km/h 6 km/h 65 % 0 mm 0.0 W/m2 CLR
01:12 -15 °C -18.4 °C 34635.4 hPa NW 9 km/h 9 km/h 65 % 0 mm 0.0 W/m2 CLR
01:17 -15 °C -18.4 °C 34635.4 hPa Calm     65 % 0 mm 0.0 W/m2 CLR
01:22 -15 °C -18.4 °C 34645.6 hPa Calm     65 % 0 mm 0.0 W/m2 CLR
01:27 -15 °C -18.5 °C 34635.4 hPa Calm     64 % 0 mm 0.0 W/m2 CLR
01:32 -15 °C -18.5 °C 34635.4 hPa Calm     64 % 0 mm 0.0 W/m2 CLR
01:37 -15 °C -18.5 °C 34645.6 hPa Calm     64 % 0 mm 0.0 W/m2 CLR
01:47 -15 °C -18.5 °C 34635.4 hPa Calm     64 % 0 mm 0.0 W/m2 CLR
01:52 -15 °C -18.5 °C 34635.4 hPa Calm     64 % 0 mm 0.0 W/m2 CLR
02:07 -15 °C -18.7 °C 34625.2 hPa Calm     62 % 0 mm 0.0 W/m2 CLR
02:12 -15 °C -18.8 °C 34625.2 hPa Calm     61 % 0 mm 0.0 W/m2 CLR
02:17 -15 °C -18.7 °C 34625.2 hPa Calm     62 % 0 mm 0.0 W/m2 CLR
02:22 -15 °C -18.7 °C 34625.2 hPa Calm     62 % 0 mm 0.0 W/m2 CLR
02:27 -15 °C -18.7 °C 34625.2 hPa Calm     62 % 0 mm 0.0 W/m2 CLR
02:47 -15 °C -18.7 °C 34625.2 hPa Calm     62 % 0 mm 0.0 W/m2 CLR
03:02 -15 °C -18.9 °C 34625.2 hPa Calm     60 % 0 mm 0.0 W/m2 CLR
03:07 -15 °C -18.8 °C 34625.2 hPa Calm     61 % 0 mm 0.0 W/m2 CLR
03:12 -15 °C -18.7 °C 34625.2 hPa Calm     62 % 0 mm 0.0 W/m2 CLR
03:17 -15 °C -18.7 °C 34625.2 hPa Calm     62 % 0 mm 0.0 W/m2 CLR
03:27 -15 °C -18.7 °C 34625.2 hPa Calm     62 % 0 mm 0.0 W/m2 CLR
03:52 -14.7 °C -18.6 °C 34611.7 hPa Calm     61 % 0 mm 0.0 W/m2 CLR
03:57 -14.7 °C -18.6 °C 34611.7 hPa Calm     61 % 0 mm 0.0 W/m2 CLR
04:02 -14.7 °C -18.6 °C 34611.7 hPa Calm     61 % 0 mm 0.0 W/m2 CLR
04:07 -14.7 °C -18.6 °C 34611.7 hPa Calm     61 % 0 mm 0.0 W/m2 CLR
04:13 -14.7 °C -18.6 °C 34611.7 hPa Calm     61 % 0 mm 0.0 W/m2 CLR
04:18 -15 °C -18.8 °C 34611.7 hPa Calm     61 % 0 mm 0.0 W/m2 CLR
04:19 -15 °C -18.8 °C 34611.7 hPa Calm     61 % 0 mm 0.0 W/m2 CLR
04:21 -15 °C -18.7 °C 34611.7 hPa Calm     62 % 0 mm 0.0 W/m2 CLR
04:26 -15 °C -18.7 °C 34611.7 hPa Calm     62 % 0 mm 0.0 W/m2 CLR
04:30 -15.3 °C -19 °C 34611.7 hPa Calm     62 % 0 mm 0.0 W/m2 CLR
04:35 -15.3 °C -18.9 °C 34601.5 hPa Calm     63 % 0 mm 0.0 W/m2 CLR
04:40 -15.3 °C -18.9 °C 34611.7 hPa Calm     63 % 0 mm 0.0 W/m2 CLR
04:45 -15.3 °C -19 °C 34611.7 hPa Calm     62 % 0 mm 0.0 W/m2 CLR
04:50 -15.6 °C -19.2 °C 34601.5 hPa Calm     63 % 0 mm 0.0 W/m2 CLR
04:55 -15.6 °C -19.3 °C 34611.7 hPa Calm     62 % 0 mm 0.0 W/m2 CLR
05:00 -15.6 °C -19.2 °C 34601.5 hPa Calm     63 % 0 mm 0.0 W/m2 CLR
05:05 -15.6 °C -19.2 °C 34611.7 hPa Calm     63 % 0 mm 0.0 W/m2 CLR
05:10 -15.3 °C -18.9 °C 34625.2 hPa Calm     63 % 0 mm 0.0 W/m2 CLR
05:15 -15 °C -18.5 °C 34611.7 hPa Calm     64 % 0 mm 0.0 W/m2 CLR
05:30 -14.7 °C -18.2 °C 34601.5 hPa Calm     64 % 0 mm 0.0 W/m2 CLR
05:35 -14.7 °C -18.2 °C 34601.5 hPa East 9 km/h   64 % 0 mm 0.0 W/m2 CLR
05:40 -14.7 °C -18.2 °C 34611.7 hPa Calm     64 % 0 mm 0.0 W/m2 CLR
05:45 -14.4 °C -17.9 °C 34601.5 hPa NNE 29.8 km/h 29.8 km/h 64 % 0 mm 0.0 W/m2 CLR
05:51 -14.4 °C -17.8 °C 34611.7 hPa WSW 17.9 km/h 17.9 km/h 65 % 0 mm 0.0 W/m2 CLR
05:56 -14.1 °C -17.7 °C 34611.7 hPa Calm   0.3 km/h 63 % 0 mm 0.0 W/m2 CLR
06:01 -14.1 °C -17.8 °C 34611.7 hPa North 20.9 km/h 20.9 km/h 62 % 0 mm 0.0 W/m2 CLR
06:06 -14.1 °C -17.9 °C 34611.7 hPa Calm     61 % 0 mm 0.0 W/m2 CLR
06:21 -13.8 °C -17.4 °C 34601.5 hPa Calm     63 % 0 mm 0.0 W/m2 CLR
06:26 -14.1 °C -17.4 °C 34601.5 hPa Calm     65 % 0 mm 0.0 W/m2 CLR
06:36 -14.1 °C -17.6 °C 34601.5 hPa Calm     64 % 0 mm 0.0 W/m2 CLR
06:41 -14.1 °C -17.6 °C 34591.4 hPa Calm     64 % 0 mm 0.0 W/m2 CLR
06:46 -14.1 °C -17.4 °C 34591.4 hPa Calm     65 % 0 mm 0.0 W/m2 CLR
06:51 -14.1 °C -17.3 °C 34591.4 hPa Calm     67 % 0 mm 0.0 W/m2 CLR
07:06 -14.1 °C -17 °C 34591.4 hPa Calm     69 % 0 mm 0.0 W/m2 CLR
07:11 -14.1 °C -17 °C 34591.4 hPa Calm     69 % 0 mm 0.0 W/m2 CLR
07:16 -14.1 °C -17.1 °C 34591.4 hPa Calm     68 % 0 mm 0.0 W/m2 CLR
07:21 -14.1 °C -17 °C 34591.4 hPa Calm     69 % 0 mm 0.0 W/m2 CLR
07:26 -14.1 °C -16.8 °C 34591.4 hPa Calm     71 % 0 mm 0.0 W/m2 CLR
07:31 -14.1 °C -16.8 °C 34591.4 hPa Calm     71 % 0 mm 0.0 W/m2 CLR
07:41 -13.8 °C -16.6 °C 34601.5 hPa Calm     70 % 0 mm 0.0 W/m2 CLR
07:46 -13.8 °C -16.7 °C 34601.5 hPa Calm     69 % 0 mm 0.0 W/m2 CLR
07:51 -13.8 °C -16.5 °C 34601.5 hPa Calm     71 % 0 mm 0.0 W/m2 OVC
08:11 -13.8 °C -16.3 °C 34601.5 hPa Calm     73 % 0 mm 7.0 W/m2 BKN
08:17 -13.4 °C -16 °C 34601.5 hPa Calm     73 % 0 mm 18.0 W/m2 BKN
08:22 -13.4 °C -16 °C 34601.5 hPa Calm     73 % 0 mm 26.0 W/m2 BKN
08:27 -13.4 °C -16 °C 34611.7 hPa Calm     73 % 0 mm 32.0 W/m2 BKN
08:32 -13.4 °C -16 °C 34611.7 hPa Calm     73 % 0 mm 32.0 W/m2 BKN
08:37 -13.4 °C -16 °C 34611.7 hPa Calm     73 % 0 mm 30.0 W/m2 BKN
08:42 -13.4 °C -16 °C 34611.7 hPa Calm     73 % 0 mm 25.0 W/m2 BKN
08:47 -13.4 °C -16 °C 34625.2 hPa Calm     73 % 0 mm 19.0 W/m2 BKN
08:52 -13.2 °C -15.7 °C 34625.2 hPa Calm     73 % 0 mm 21.0 W/m2 BKN
08:57 -13.2 °C -15.8 °C 34625.2 hPa Calm     72 % 0 mm 28.0 W/m2 BKN
09:02 -13.2 °C -15.9 °C 34625.2 hPa Calm     71 % 0 mm 44.0 W/m2 BKN
09:12 -12.8 °C -15.6 °C 34635.4 hPa Calm     71 % 0 mm 72.0 W/m2 SCT
09:17 -12.8 °C -15.9 °C 34635.4 hPa Calm     68 % 0 mm 74.0 W/m2 FEW
09:22 -12.8 °C -15.6 °C 34635.4 hPa Calm     71 % 0 mm 81.0 W/m2 FEW
09:37 -12.6 °C -15.3 °C 34635.4 hPa Calm     71 % 0 mm 121.0 W/m2 CLR
09:42 -12.2 °C -15 °C 34635.4 hPa Calm     71 % 0 mm 104.0 W/m2 CLR
09:47 -12.2 °C -15 °C 34635.4 hPa Calm     71 % 0 mm 100.0 W/m2 CLR
09:52 -12.2 °C -15.1 °C 34635.4 hPa Calm     70 % 0 mm 91.0 W/m2 CLR
09:57 -12.2 °C -15.1 °C 34635.4 hPa Calm     70 % 0 mm 77.0 W/m2 CLR
10:02 -12.2 °C -15 °C 34635.4 hPa Calm     71 % 0 mm 81.0 W/m2 CLR
10:07 -12.2 °C -15.1 °C 34645.6 hPa Calm     70 % 0 mm 69.0 W/m2 FEW
10:12 -12.2 °C -15.1 °C 34645.6 hPa Calm     70 % 0 mm 269.0 W/m2 CLR
10:17 -12.2 °C -15.4 °C 34645.6 hPa Calm     67 % 0 mm 134.0 W/m2 CLR
10:22 -11.9 °C -15.6 °C 34645.6 hPa Calm     64 % 0 mm 299.0 W/m2 CLR
10:27 -11.9 °C -15.8 °C 34645.6 hPa Calm     62 % 0 mm 308.0 W/m2 CLR
10:32 -11.9 °C -16.1 °C 34635.4 hPa Calm     60 % 0 mm 316.0 W/m2 CLR
10:37 -11.3 °C -15.7 °C 34635.4 hPa Calm     58 % 0 mm 325.0 W/m2 CLR
10:47 -10.7 °C -15.9 °C 34645.6 hPa Calm     53 % 0 mm 345.0 W/m2 CLR
10:52 -10.4 °C -15.9 °C 34645.6 hPa Calm     51 % 0 mm 352.0 W/m2 CLR
11:02 -9.4 °C -15.3 °C 34635.4 hPa Calm     49 % 0 mm 367.0 W/m2 CLR
11:07 -9.4 °C -15.9 °C 34635.4 hPa Calm     46 % 0 mm 374.0 W/m2 CLR
11:12 -9.4 °C -16.2 °C 34635.4 hPa Calm     44 % 0 mm 383.0 W/m2 CLR
11:17 -9.1 °C -15.9 °C 34635.4 hPa Calm     44 % 0 mm 390.0 W/m2 CLR
11:22 -8.8 °C -15.8 °C 34635.4 hPa Calm     43 % 0 mm 396.0 W/m2 CLR
11:27 -8.2 °C -15.7 °C 34635.4 hPa Calm     41 % 0 mm 401.0 W/m2 CLR
11:32 -8.2 °C -15.8 °C 34625.2 hPa North 9 km/h 9 km/h 40 % 0 mm 411.0 W/m2 CLR
11:37 -7.9 °C -15.9 °C 34625.2 hPa NW 23.8 km/h 23.8 km/h 38 % 0 mm 410.0 W/m2 CLR
11:42 -7.6 °C -15.9 °C 34625.2 hPa NW 6 km/h 6 km/h 37 % 0 mm 413.0 W/m2 CLR
11:47 -7.3 °C -15.8 °C 34611.7 hPa NW 11.9 km/h 11.9 km/h 36 % 0 mm 427.0 W/m2 CLR
11:52 -7 °C -15.6 °C 34611.7 hPa NW 23.8 km/h 23.8 km/h 36 % 0 mm 432.0 W/m2 CLR
11:57 -6.7 °C -15.3 °C 34611.7 hPa NNW 29.8 km/h 29.8 km/h 36 % 0 mm 441.0 W/m2 CLR
11:58 -6.7 °C -15.3 °C 34601.5 hPa NNW 29.8 km/h 29.8 km/h 36 % 0 mm 441.0 W/m2 CLR
12:03 -6.7 °C -15.3 °C 34601.5 hPa North 9 km/h 9 km/h 36 % 0 mm 446.0 W/m2 CLR
12:08 -6.7 °C -15.3 °C 34591.4 hPa WSW 3.1 km/h 3.1 km/h 36 % 0 mm 454.0 W/m2 CLR
12:13 -6.7 °C -15.3 °C 34591.4 hPa WSW 9 km/h 9 km/h 36 % 0 mm 454.0 W/m2 CLR
12:18 -6.3 °C -15.2 °C 34591.4 hPa WSW 10.3 km/h 10.3 km/h 35 % 0 mm 462.0 W/m2 CLR
12:23 -6.3 °C -15.2 °C 34591.4 hPa NW 9 km/h 9 km/h 35 % 0 mm 469.0 W/m2 CLR
12:28 -6.3 °C -15.2 °C 34577.8 hPa North 15 km/h 15 km/h 35 % 0 mm 462.0 W/m2 CLR
12:33 -6.1 °C -14.9 °C 34577.8 hPa West 26.9 km/h 26.9 km/h 35 % 0 mm 464.0 W/m2 CLR
12:38 -6.1 °C -14.9 °C 34577.8 hPa West 35.7 km/h 35.7 km/h 35 % 0 mm 452.0 W/m2 CLR
12:43 -6.1 °C -14.9 °C 34567.7 hPa NW 32.8 km/h 32.8 km/h 35 % 0 mm 418.0 W/m2 CLR
12:48 -6.1 °C -14.8 °C 34567.7 hPa NW 31.1 km/h 31.1 km/h 36 % 0 mm 250.0 W/m2 CLR
12:53 -6.1 °C -14.6 °C 34577.8 hPa WNW 32.8 km/h 32.8 km/h 37 % 0 mm 345.0 W/m2 CLR
12:58 -6.1 °C -14.3 °C 34567.7 hPa WNW 29.8 km/h 29.8 km/h 38 % 0 mm 239.0 W/m2 CLR
13:03 -6.1 °C -14.3 °C 34567.7 hPa WNW 25.9 km/h 25.9 km/h 38 % 0 mm 223.0 W/m2 CLR
13:08 -6.1 °C -14.3 °C 34567.7 hPa NW 32.8 km/h 32.8 km/h 38 % 0 mm 251.0 W/m2 CLR
13:13 -6.1 °C -14.1 °C 34567.7 hPa NW 29.8 km/h 29.8 km/h 39 % 0 mm 218.0 W/m2 CLR
13:18 -6.1 °C -14.3 °C 34567.7 hPa NW 29.8 km/h 29.8 km/h 38 % 0 mm 229.0 W/m2 CLR
13:23 -6.1 °C -14.3 °C 34567.7 hPa Calm     38 % 0 mm 338.0 W/m2 CLR
13:28 -5.7 °C -14.1 °C 34567.7 hPa NW 15.6 km/h 15.6 km/h 38 % 0 mm 315.0 W/m2 CLR
13:33 -5.7 °C -13.8 °C 34567.7 hPa NW 20.8 km/h 20.8 km/h 39 % 0 mm 276.0 W/m2 CLR
13:38 -5.7 °C -13.8 °C 34567.7 hPa NNW 11.9 km/h 11.9 km/h 39 % 0 mm 292.0 W/m2 CLR
13:43 -5.7 °C -13.8 °C 34567.7 hPa NNW 17.9 km/h 17.9 km/h 39 % 0 mm 283.0 W/m2 CLR
13:48 -5.7 °C -13.6 °C 34567.7 hPa NW 29.8 km/h 29.8 km/h 40 % 0 mm 248.0 W/m2 CLR
13:53 -5.7 °C -13.6 °C 34567.7 hPa NW 31.1 km/h 31.1 km/h 40 % 0 mm 272.0 W/m2 CLR
13:58 -6.1 °C -13.9 °C 34567.7 hPa NW 26.9 km/h 26.9 km/h 40 % 0 mm 260.0 W/m2 CLR
14:03 -5.7 °C -13.8 °C 34554.1 hPa NW 6 km/h 6 km/h 39 % 0 mm 283.0 W/m2 CLR
14:08 -5.7 °C -13.8 °C 34554.1 hPa North 29.8 km/h 29.8 km/h 39 % 0 mm 269.0 W/m2 CLR
14:13 -5.7 °C -13.8 °C 34554.1 hPa NW 29.8 km/h 29.8 km/h 39 % 0 mm 243.0 W/m2 CLR
14:18 -6.1 °C -14.1 °C 34554.1 hPa NW 29.8 km/h 29.8 km/h 39 % 0 mm 264.0 W/m2 CLR
14:24 -6.1 °C -13.9 °C 34554.1 hPa Calm   1.3 km/h 40 % 0 mm 192.0 W/m2 CLR
14:29 -6.1 °C -14.1 °C 34554.1 hPa North 29.8 km/h 29.8 km/h 39 % 0 mm 204.0 W/m2 CLR
14:34 -6.1 °C -14.1 °C 34554.1 hPa North 7.7 km/h 7.7 km/h 39 % 0 mm 316.0 W/m2 CLR
14:39 -6.1 °C -14.1 °C 34554.1 hPa NNE 26.9 km/h 26.9 km/h 39 % 0 mm 220.0 W/m2 CLR
14:44 -6.1 °C -14.1 °C 34554.1 hPa Calm     39 % 0 mm 206.0 W/m2 CLR
14:49 -6.1 °C -14.1 °C 34554.1 hPa North 9 km/h 9 km/h 39 % 0 mm 160.0 W/m2 CLR
14:54 -6.1 °C -14.1 °C 34554.1 hPa Calm     39 % 0 mm 130.0 W/m2 CLR
14:59 -6.3 °C -14.6 °C 34554.1 hPa NNE 15.6 km/h 15.6 km/h 38 % 0 mm 148.0 W/m2 CLR
15:04 -6.3 °C -14.8 °C 34554.1 hPa NE 26.9 km/h 26.9 km/h 37 % 0 mm 163.0 W/m2 CLR
15:09 -6.7 °C -14.9 °C 34554.1 hPa NNE 23.8 km/h 23.8 km/h 38 % 0 mm 346.0 W/m2 CLR
15:14 -6.3 °C -14.6 °C 34554.1 hPa NE 6 km/h   38 % 0 mm 399.0 W/m2 CLR
15:19 -6.3 °C -14.6 °C 34554.1 hPa NE 6 km/h 6 km/h 38 % 0 mm 236.0 W/m2 CLR
15:24 -6.3 °C -14.4 °C 34554.1 hPa NE 9 km/h 9 km/h 39 % 0 mm 276.0 W/m2 CLR
15:29 -6.3 °C -14.4 °C 34554.1 hPa NE 9 km/h   39 % 0 mm 179.0 W/m2 CLR
15:34 -6.7 °C -14.7 °C 34554.1 hPa NE 3.1 km/h   39 % 0 mm 118.0 W/m2 CLR
15:39 -6.7 °C -14.7 °C 34554.1 hPa NE 6 km/h 6 km/h 39 % 0 mm 120.0 W/m2 CLR
15:44 -7 °C -14.7 °C 34554.1 hPa NNE 3.1 km/h 3.1 km/h 40 % 0 mm 90.0 W/m2 CLR
15:49 -7 °C -14.7 °C 34544 hPa NE 9 km/h 9 km/h 40 % 0 mm 107.0 W/m2 CLR
15:54 -7.3 °C -14.8 °C 34544 hPa Calm     41 % 0 mm 79.0 W/m2 CLR
15:59 -7.3 °C -14.8 °C 34544 hPa Calm     41 % 0 mm 83.0 W/m2 FEW
16:04 -7.3 °C -14.8 °C 34544 hPa Calm     41 % 0 mm 88.0 W/m2 FEW
16:09 -7.6 °C -14.9 °C 34554.1 hPa Calm     42 % 0 mm 84.0 W/m2 FEW
16:14 -7.6 °C -14.9 °C 34554.1 hPa Calm     42 % 0 mm 81.0 W/m2 FEW
16:19 -7.6 °C -14.9 °C 34554.1 hPa Calm     42 % 0 mm 81.0 W/m2 FEW
16:24 -7.9 °C -15.2 °C 34554.1 hPa Calm     42 % 0 mm 76.0 W/m2 FEW
16:29 -7.9 °C -15 °C 34554.1 hPa Calm     43 % 0 mm 69.0 W/m2 FEW
16:34 -7.9 °C -15 °C 34554.1 hPa Calm     43 % 0 mm 65.0 W/m2 SCT
16:39 -8.2 °C -15.1 °C 34554.1 hPa Calm     44 % 0 mm 84.0 W/m2 FEW
16:44 -8.2 °C -15.1 °C 34544 hPa Calm     44 % 0 mm 56.0 W/m2 SCT
16:49 -8.2 °C -15.1 °C 34554.1 hPa Calm     44 % 0 mm 56.0 W/m2 SCT
16:54 -8.5 °C -15.4 °C 34554.1 hPa Calm     44 % 0 mm 47.0 W/m2 SCT
16:59 -8.8 °C -15.4 °C 34554.1 hPa Calm     45 % 0 mm 42.0 W/m2 BKN
17:04 -8.8 °C -15.4 °C 34554.1 hPa Calm     45 % 0 mm 39.0 W/m2 BKN
17:09 -9.1 °C -15.6 °C 34554.1 hPa Calm     46 % 0 mm 32.0 W/m2 BKN
17:14 -9.1 °C -15.6 °C 34554.1 hPa Calm     46 % 0 mm 19.0 W/m2 BKN
17:24 -9.8 °C -15.9 °C 34554.1 hPa Calm     47 % 0 mm 9.0 W/m2 BKN
17:29 -10.1 °C -16.2 °C 34554.1 hPa Calm     47 % 0 mm 5.0 W/m2 OVC
17:34 -10.1 °C -16.1 °C 34554.1 hPa Calm     48 % 0 mm 0.0 W/m2 OVC
17:39 -10.4 °C -16.3 °C 34554.1 hPa Calm     48 % 0 mm 0.0 W/m2 OVC
17:44 -10.7 °C -16.5 °C 34554.1 hPa Calm     49 % 0 mm 0.0 W/m2 CLR
17:49 -10.7 °C -16.5 °C 34554.1 hPa Calm     49 % 0 mm 0.0 W/m2 CLR
17:54 -11 °C -16.6 °C 34554.1 hPa Calm     50 % 0 mm 0.0 W/m2 CLR
17:59 -11 °C -16.6 °C 34554.1 hPa Calm     50 % 0 mm 0.0 W/m2 CLR
18:04 -11 °C -16.6 °C 34554.1 hPa Calm     50 % 0 mm 0.0 W/m2 CLR
18:09 -11 °C -16.4 °C 34554.1 hPa Calm     51 % 0 mm 0.0 W/m2 CLR
18:14 -11 °C -16.4 °C 34554.1 hPa Calm     51 % 0 mm 0.0 W/m2 CLR
18:19 -11.3 °C -16.6 °C 34554.1 hPa Calm     52 % 0 mm 0.0 W/m2 CLR
18:24 -11.3 °C -16.4 °C 34567.7 hPa Calm     53 % 0 mm 0.0 W/m2 CLR
18:29 -11.6 °C -16.6 °C 34567.7 hPa Calm     54 % 0 mm 0.0 W/m2 CLR
18:34 -11.6 °C -16.4 °C 34567.7 hPa Calm     55 % 0 mm 0.0 W/m2 CLR
18:39 -11.6 °C -16.4 °C 34567.7 hPa Calm     55 % 0 mm 0.0 W/m2 CLR
18:44 -11.9 °C -16.7 °C 34554.1 hPa Calm     55 % 0 mm 0.0 W/m2 CLR
18:49 -11.9 °C -16.6 °C 34567.7 hPa Calm     56 % 0 mm 0.0 W/m2 CLR
18:54 -12.2 °C -16.7 °C 34567.7 hPa Calm     57 % 0 mm 0.0 W/m2 CLR
18:59 -12.6 °C -16.9 °C 34567.7 hPa Calm     58 % 0 mm 0.0 W/m2 CLR
19:04 -12.6 °C -16.9 °C 34567.7 hPa Calm     58 % 0 mm 0.0 W/m2 CLR
19:09 -12.6 °C -16.9 °C 34567.7 hPa Calm     58 % 0 mm 0.0 W/m2 CLR
19:14 -12.6 °C -16.6 °C 34567.7 hPa Calm     60 % 0 mm 0.0 W/m2 CLR
19:19 -12.6 °C -16.6 °C 34567.7 hPa Calm     60 % 0 mm 0.0 W/m2 CLR
19:24 -12.8 °C -16.8 °C 34567.7 hPa Calm     61 % 0 mm 0.0 W/m2 CLR
19:29 -12.8 °C -16.8 °C 34567.7 hPa Calm     61 % 0 mm 0.0 W/m2 CLR
19:34 -12.8 °C -16.7 °C 34567.7 hPa Calm     62 % 0 mm 0.0 W/m2 CLR
19:39 -12.8 °C -16.7 °C 34567.7 hPa Calm     62 % 0 mm 0.0 W/m2 CLR
19:44 -12.2 °C -16.2 °C 34567.7 hPa Calm     61 % 0 mm 0.0 W/m2 CLR
19:49 -12.2 °C -16.1 °C 34567.7 hPa Calm     62 % 0 mm 0.0 W/m2 CLR
19:54 -12.6 °C -16.3 °C 34567.7 hPa Calm     63 % 0 mm 0.0 W/m2 CLR
19:59 -12.6 °C -16.3 °C 34567.7 hPa Calm     63 % 0 mm 0.0 W/m2 CLR
20:04 -12.8 °C -16.6 °C 34567.7 hPa Calm     63 % 0 mm 0.0 W/m2 CLR
20:09 -12.8 °C -16.4 °C 34577.8 hPa Calm     64 % 0 mm 0.0 W/m2 CLR
20:14 -12.8 °C -16.4 °C 34567.7 hPa Calm     64 % 0 mm 0.0 W/m2 CLR
20:19 -12.8 °C -16.3 °C 34577.8 hPa Calm     65 % 0 mm 0.0 W/m2 CLR
20:24 -13.2 °C -16.7 °C 34577.8 hPa Calm     64 % 0 mm 0.0 W/m2 CLR
20:29 -13.2 °C -16.6 °C 34577.8 hPa Calm     65 % 0 mm 0.0 W/m2 CLR
20:34 -13.2 °C -16.6 °C 34577.8 hPa Calm     65 % 0 mm 0.0 W/m2 CLR
20:39 -13.2 °C -16.6 °C 34577.8 hPa Calm     65 % 0 mm 0.0 W/m2 CLR
20:44 -13.2 °C -16.6 °C 34577.8 hPa Calm     65 % 0 mm 0.0 W/m2 CLR
20:49 -13.4 °C -16.8 °C 34577.8 hPa Calm     66 % 0 mm 0.0 W/m2 CLR
20:54 -13.4 °C -16.9 °C 34591.4 hPa Calm     65 % 0 mm 0.0 W/m2 CLR
20:59 -13.4 °C -16.8 °C 34591.4 hPa Calm     66 % 0 mm 0.0 W/m2 CLR
21:05 -13.8 °C -17.1 °C 34591.4 hPa Calm     66 % 0 mm 0.0 W/m2 CLR
21:10 -13.8 °C -17.1 °C 34591.4 hPa Calm     66 % 0 mm 0.0 W/m2 CLR
21:15 -13.8 °C -17.1 °C 34591.4 hPa Calm     66 % 0 mm 0.0 W/m2 CLR
21:20 -13.8 °C -16.9 °C 34591.4 hPa Calm     67 % 0 mm 0.0 W/m2 CLR
21:25 -14.1 °C -17.4 °C 34591.4 hPa Calm     65 % 0 mm 0.0 W/m2 CLR
21:30 -14.1 °C -17.3 °C 34591.4 hPa Calm     66 % 0 mm 0.0 W/m2 CLR
21:35 -14.1 °C -17.3 °C 34591.4 hPa Calm     67 % 0 mm 0.0 W/m2 CLR
21:40 -14.1 °C -17.3 °C 34591.4 hPa Calm     67 % 0 mm 0.0 W/m2 CLR
21:45 -14.4 °C -17.7 °C 34591.4 hPa Calm     66 % 0 mm 0.0 W/m2 CLR
21:50 -14.4 °C -17.4 °C 34591.4 hPa Calm     68 % 0 mm 0.0 W/m2 CLR
21:55 -14.4 °C -17.3 °C 34591.4 hPa Calm     69 % 0 mm 0.0 W/m2 CLR
22:00 -14.4 °C -17.4 °C 34591.4 hPa Calm     68 % 0 mm 0.0 W/m2 CLR
22:05 -14.7 °C -17.7 °C 34577.8 hPa Calm     68 % 0 mm 0.0 W/m2 CLR
22:10 -14.7 °C -17.8 °C 34577.8 hPa Calm     67 % 0 mm 0.0 W/m2 CLR
22:15 -14.7 °C -17.7 °C 34577.8 hPa Calm     68 % 0 mm 0.0 W/m2 CLR
22:20 -14.7 °C -17.6 °C 34577.8 hPa Calm     69 % 0 mm 0.0 W/m2 CLR
22:25 -14.7 °C -17.5 °C 34591.4 hPa Calm     70 % 0 mm 0.0 W/m2 CLR
22:30 -15 °C -17.7 °C 34577.8 hPa Calm     71 % 0 mm 0.0 W/m2 CLR
22:35 -14.7 °C -17.4 °C 34577.8 hPa Calm     71 % 0 mm 0.0 W/m2 CLR
22:40 -14.7 °C -17.4 °C 34577.8 hPa Calm     71 % 0 mm 0.0 W/m2 CLR
22:41 -15 °C -17.7 °C 34577.8 hPa Calm     71 % 0 mm 0.0 W/m2 CLR
22:46 -15 °C -17.7 °C 34567.7 hPa Calm     71 % 0 mm 0.0 W/m2 CLR
22:51 -15 °C -17.7 °C 34567.7 hPa Calm     71 % 0 mm 0.0 W/m2 CLR
22:52 -15 °C -17.7 °C 34567.7 hPa Calm     71 % 0 mm 0.0 W/m2 CLR
22:57 -15 °C -17.4 °C 34577.8 hPa Calm     73 % 0 mm 0.0 W/m2 CLR
23:02 -15 °C -17.4 °C 34577.8 hPa Calm     73 % 0 mm 0.0 W/m2 CLR
23:07 -15 °C -17.4 °C 34567.7 hPa Calm     73 % 0 mm 0.0 W/m2 CLR
23:12 -15 °C -17.4 °C 34577.8 hPa Calm     74 % 0 mm 0.0 W/m2 CLR
23:17 -15 °C -17.3 °C 34577.8 hPa Calm     75 % 0 mm 0.0 W/m2 CLR
23:22 -14.7 °C -17 °C 34577.8 hPa Calm     75 % 0 mm 0.0 W/m2 CLR
23:27 -14.7 °C -17.1 °C 34567.7 hPa Calm     74 % 0 mm 0.0 W/m2 CLR
23:32 -14.7 °C -17.1 °C 34567.7 hPa Calm     74 % 0 mm 0.0 W/m2 CLR
23:37 -14.7 °C -17.1 °C 34567.7 hPa Calm     74 % 0 mm 0.0 W/m2 CLR
23:42 -14.7 °C -17.1 °C 34577.8 hPa Calm     74 % 0 mm 0.0 W/m2 CLR
23:47 -15 °C -17.4 °C 34567.7 hPa Calm     74 % 0 mm 0.0 W/m2 CLR
23:52 -15 °C -17.4 °C 34567.7 hPa Calm     74 % 0 mm 0.0 W/m2 CLR
23:57 -15 °C -17.3 °C 34577.8 hPa Calm     75 % 0 mm 0.0 W/m2 CLR
Lo Temps de Massalio
Compliments of Weather Underground - 1 mb